Time,TemperatureF,DewpointF,PressureIn,WindDirection,WindDirectionDegrees,WindSpeedMPH,WindSpeedGustMPH,Humidity,HourlyPrecipIn,Conditions,Clouds,dailyrainin,SoftwareType,DateUTC
2013-02-05 00:02:00,39.9,26.0,30.00,West,273,0.0,3.0,58,0.00,,,0.00,weatherlink.com 1.10,2013-02-05 05:02:00,
2013-02-05 00:17:00,40.0,26.0,30.00,SW,231,0.0,1.0,58,0.00,,,0.00,weatherlink.com 1.10,2013-02-05 05:17:00,
2013-02-05 00:32:00,40.0,26.0,29.99,SW,226,0.0,1.0,58,0.00,,,0.00,weatherlink.com 1.10,2013-02-05 05:32:00,
2013-02-05 00:47:00,39.9,26.0,29.98,SSW,207,0.0,1.0,58,0.00,,,0.00,weatherlink.com 1.10,2013-02-05 05:47:00,
2013-02-05 01:02:00,39.7,26.0,29.98,SW,217,0.0,0.0,59,0.00,,,0.00,weatherlink.com 1.10,2013-02-05 06:02:00,
2013-02-05 01:17:00,39.6,26.0,29.97,SSE,152,0.0,1.0,59,0.00,,,0.00,weatherlink.com 1.10,2013-02-05 06:17:00,
2013-02-05 01:32:00,39.7,27.0,29.97,WSW,238,0.0,1.0,62,0.00,,,0.00,weatherlink.com 1.10,2013-02-05 06:32:00,
2013-02-05 01:47:00,39.5,26.0,29.97,West,259,0.0,1.0,59,0.00,,,0.00,weatherlink.com 1.10,2013-02-05 06:47:00,
2013-02-05 02:02:00,40.1,27.0,29.97,West,259,0.0,1.0,60,0.00,,,0.00,weatherlink.com 1.10,2013-02-05 07:02:00,
2013-02-05 02:17:00,39.5,27.0,29.97,WNW,302,0.0,0.0,62,0.00,,,0.00,weatherlink.com 1.10,2013-02-05 07:17:00,
2013-02-05 02:32:00,39.5,26.0,29.96,WSW,245,0.0,0.0,60,0.00,,,0.00,weatherlink.com 1.10,2013-02-05 07:32:00,
2013-02-05 02:47:00,40.4,29.0,29.95,NE,53,0.0,1.0,64,0.00,,,0.00,weatherlink.com 1.10,2013-02-05 07:47:00,
2013-02-05 03:02:00,41.1,28.0,29.95,NE,53,0.0,0.0,59,0.00,,,0.00,weatherlink.com 1.10,2013-02-05 08:02:00,
2013-02-05 03:17:00,40.3,27.0,29.95,NE,53,0.0,0.0,59,0.00,,,0.00,weatherlink.com 1.10,2013-02-05 08:17:00,
2013-02-05 03:32:00,41.2,28.0,29.94,SE,127,0.0,1.0,59,0.00,,,0.00,weatherlink.com 1.10,2013-02-05 08:32:00,
2013-02-05 03:47:00,40.0,27.0,29.94,SE,131,0.0,1.0,61,0.00,,,0.00,weatherlink.com 1.10,2013-02-05 08:47:00,
2013-02-05 04:02:00,40.3,28.0,29.95,North,10,0.0,0.0,62,0.00,,,0.00,weatherlink.com 1.10,2013-02-05 09:02:00,
2013-02-05 04:17:00,39.5,28.0,29.94,North,11,0.0,0.0,63,0.00,,,0.00,weatherlink.com 1.10,2013-02-05 09:17:00,
2013-02-05 04:32:00,38.3,28.0,29.95,North,9,0.0,0.0,67,0.00,,,0.00,weatherlink.com 1.10,2013-02-05 09:32:00,
2013-02-05 04:47:00,40.4,30.0,29.95,NNE,23,0.0,1.0,66,0.00,,,0.00,weatherlink.com 1.10,2013-02-05 09:47:00,
2013-02-05 05:02:00,38.9,29.0,29.95,North,6,0.0,1.0,67,0.00,,,0.00,weatherlink.com 1.10,2013-02-05 10:02:00,
2013-02-05 05:17:00,36.8,29.0,29.94,ENE,62,0.0,1.0,73,0.00,,,0.00,weatherlink.com 1.10,2013-02-05 10:17:00,
2013-02-05 05:32:00,36.7,28.0,29.95,SSE,150,0.0,1.0,72,0.00,,,0.00,weatherlink.com 1.10,2013-02-05 10:32:00,
2013-02-05 05:47:00,35.8,28.0,29.96,NE,51,0.0,0.0,74,0.00,,,0.00,weatherlink.com 1.10,2013-02-05 10:47:00,
2013-02-05 06:02:00,35.1,28.0,29.95,NE,51,0.0,0.0,75,0.00,,,0.00,weatherlink.com 1.10,2013-02-05 11:02:00,
2013-02-05 06:17:00,37.4,30.0,29.96,NE,35,0.0,1.0,76,0.00,,,0.00,weatherlink.com 1.10,2013-02-05 11:17:00,
2013-02-05 06:33:00,38.8,30.0,29.96,NNE,13,0.0,1.0,70,0.00,,,0.00,weatherlink.com 1.10,2013-02-05 11:33:00,
2013-02-05 06:48:00,38.2,29.0,29.96,NNE,16,0.0,0.0,70,0.00,,,0.00,weatherlink.com 1.10,2013-02-05 11:48:00,
2013-02-05 07:18:00,36.5,29.0,29.96,NE,34,0.0,0.0,73,0.00,,,0.00,weatherlink.com 1.10,2013-02-05 12:18:00,
2013-02-05 07:33:00,38.3,30.0,29.97,NE,34,0.0,0.0,71,0.00,,,0.00,weatherlink.com 1.10,2013-02-05 12:33:00,
2013-02-05 07:48:00,37.5,30.0,29.97,NE,34,0.0,0.0,75,0.00,,,0.00,weatherlink.com 1.10,2013-02-05 12:48:00,
2013-02-05 08:03:00,38.8,29.0,29.97,East,91,0.0,0.0,69,0.00,,,0.00,weatherlink.com 1.10,2013-02-05 13:03:00,
2013-02-05 08:18:00,37.9,30.0,29.97,SE,141,0.0,1.0,73,0.00,,,0.00,weatherlink.com 1.10,2013-02-05 13:18:00,
2013-02-05 08:33:00,38.3,30.0,29.98,SE,143,0.0,1.0,72,0.00,,,0.00,weatherlink.com 1.10,2013-02-05 13:33:00,
2013-02-05 08:48:00,38.8,30.0,29.98,South,174,0.0,1.0,70,0.00,,,0.00,weatherlink.com 1.10,2013-02-05 13:48:00,
2013-02-05 09:03:00,40.1,30.0,29.98,West,267,2.0,3.0,68,0.00,,,0.00,weatherlink.com 1.10,2013-02-05 14:03:00,
2013-02-05 09:18:00,41.2,30.0,29.98,SW,232,1.0,3.0,65,0.00,,,0.00,weatherlink.com 1.10,2013-02-05 14:18:00,
2013-02-05 09:33:00,41.9,30.0,29.97,SW,228,3.0,4.0,64,0.00,,,0.00,weatherlink.com 1.10,2013-02-05 14:33:00,
2013-02-05 09:48:00,42.4,30.0,29.99,West,272,2.0,6.0,63,0.00,,,0.00,weatherlink.com 1.10,2013-02-05 14:48:00,
2013-02-05 10:03:00,42.7,31.0,29.98,WSW,248,0.0,3.0,63,0.00,,,0.00,weatherlink.com 1.10,2013-02-05 15:03:00,
2013-02-05 10:18:00,43.5,31.0,29.98,WSW,256,1.0,4.0,61,0.00,,,0.00,weatherlink.com 1.10,2013-02-05 15:18:00,
2013-02-05 10:33:00,44.9,32.0,29.98,WSW,248,0.0,1.0,61,0.00,,,0.00,weatherlink.com 1.10,2013-02-05 15:33:00,
2013-02-05 10:48:00,45.2,31.0,29.98,West,267,1.0,3.0,58,0.00,,,0.00,weatherlink.com 1.10,2013-02-05 15:48:00,
2013-02-05 11:03:00,47.3,32.0,29.98,ESE,115,1.0,2.0,56,0.00,,,0.00,weatherlink.com 1.10,2013-02-05 16:03:00,
2013-02-05 11:18:00,48.0,31.0,29.98,WNW,288,0.0,3.0,53,0.00,,,0.00,weatherlink.com 1.10,2013-02-05 16:18:00,
2013-02-05 11:33:00,49.3,32.0,29.98,SW,234,0.0,4.0,51,0.00,,,0.00,weatherlink.com 1.10,2013-02-05 16:33:00,
2013-02-05 11:48:00,49.7,32.0,29.97,NW,324,0.0,4.0,50,0.00,,,0.00,weatherlink.com 1.10,2013-02-05 16:48:00,
2013-02-05 12:03:00,51.3,32.0,29.96,SSW,210,2.0,3.0,48,0.00,,,0.00,weatherlink.com 1.10,2013-02-05 17:03:00,
2013-02-05 12:18:00,52.5,32.0,29.95,West,269,2.0,3.0,46,0.00,,,0.00,weatherlink.com 1.10,2013-02-05 17:18:00,
2013-02-05 12:33:00,53.0,31.0,29.95,SSE,153,1.0,3.0,44,0.00,,,0.00,weatherlink.com 1.10,2013-02-05 17:33:00,
2013-02-05 12:48:00,55.0,32.0,29.94,NW,312,2.0,4.0,42,0.00,,,0.00,weatherlink.com 1.10,2013-02-05 17:48:00,
2013-02-05 13:03:00,55.2,34.0,29.93,SW,222,2.0,4.0,45,0.00,,,0.00,weatherlink.com 1.10,2013-02-05 18:03:00,
2013-02-05 13:18:00,55.5,33.0,29.93,SW,235,0.0,4.0,42,0.00,,,0.00,weatherlink.com 1.10,2013-02-05 18:18:00,
2013-02-05 13:33:00,56.1,32.0,29.91,South,170,1.0,5.0,40,0.00,,,0.00,weatherlink.com 1.10,2013-02-05 18:33:00,
2013-02-05 13:48:00,56.9,32.0,29.91,WSW,243,4.0,5.0,39,0.00,,,0.00,weatherlink.com 1.10,2013-02-05 18:48:00,
2013-02-05 14:03:00,56.9,31.0,29.91,SW,235,0.0,6.0,38,0.00,,,0.00,weatherlink.com 1.10,2013-02-05 19:03:00,
2013-02-05 14:18:00,56.8,31.0,29.91,WSW,254,3.0,8.0,38,0.00,,,0.00,weatherlink.com 1.10,2013-02-05 19:18:00,
2013-02-05 14:34:00,58.0,32.0,29.90,WNW,290,4.0,7.0,38,0.00,,,0.00,weatherlink.com 1.10,2013-02-05 19:34:00,
2013-02-05 14:49:00,58.1,32.0,29.90,WSW,240,4.0,9.0,38,0.00,,,0.00,weatherlink.com 1.10,2013-02-05 19:49:00,
2013-02-05 15:04:00,58.9,33.0,29.91,West,270,3.0,8.0,38,0.00,,,0.00,weatherlink.com 1.10,2013-02-05 20:04:00,
2013-02-05 15:19:00,58.7,34.0,29.90,WNW,284,8.0,8.0,39,0.00,,,0.00,weatherlink.com 1.10,2013-02-05 20:19:00,
2013-02-05 15:34:00,58.7,34.0,29.90,WSW,256,4.0,9.0,39,0.00,,,0.00,weatherlink.com 1.10,2013-02-05 20:34:00,
2013-02-05 15:49:00,59.3,34.0,29.90,WSW,248,2.0,4.0,39,0.00,,,0.00,weatherlink.com 1.10,2013-02-05 20:49:00,
2013-02-05 16:04:00,59.4,34.0,29.90,West,269,3.0,6.0,39,0.00,,,0.00,weatherlink.com 1.10,2013-02-05 21:04:00,
2013-02-05 16:19:00,59.0,35.0,29.90,WNW,285,3.0,7.0,40,0.00,,,0.00,weatherlink.com 1.10,2013-02-05 21:19:00,
2013-02-05 16:34:00,58.8,36.0,29.91,NNW,340,2.0,7.0,42,0.00,,,0.00,weatherlink.com 1.10,2013-02-05 21:34:00,
2013-02-05 16:49:00,58.4,35.0,29.91,NW,312,8.0,10.0,42,0.00,,,0.00,weatherlink.com 1.10,2013-02-05 21:49:00,
2013-02-05 17:04:00,57.4,35.0,29.91,WNW,300,0.0,5.0,44,0.00,,,0.00,weatherlink.com 1.10,2013-02-05 22:04:00,
2013-02-05 17:19:00,56.7,35.0,29.91,NW,312,2.0,7.0,44,0.00,,,0.00,weatherlink.com 1.10,2013-02-05 22:19:00,
2013-02-05 17:34:00,56.2,35.0,29.92,NW,312,1.0,8.0,45,0.00,,,0.00,weatherlink.com 1.10,2013-02-05 22:34:00,
2013-02-05 17:49:00,55.5,34.0,29.92,NW,312,0.0,9.0,45,0.00,,,0.00,weatherlink.com 1.10,2013-02-05 22:49:00,
2013-02-05 18:04:00,54.0,34.0,29.93,NE,41,2.0,3.0,47,0.00,,,0.00,weatherlink.com 1.10,2013-02-05 23:04:00,
2013-02-05 18:19:00,52.6,34.0,29.93,ENE,58,0.0,2.0,50,0.00,,,0.00,weatherlink.com 1.10,2013-02-05 23:19:00,
2013-02-05 18:34:00,52.2,34.0,29.94,NNE,27,0.0,1.0,51,0.00,,,0.00,weatherlink.com 1.10,2013-02-05 23:34:00,
2013-02-05 18:49:00,51.9,34.0,29.94,NE,34,0.0,1.0,51,0.00,,,0.00,weatherlink.com 1.10,2013-02-05 23:49:00,
2013-02-05 19:04:00,51.1,34.0,29.94,NNE,29,0.0,2.0,53,0.00,,,0.00,weatherlink.com 1.10,2013-02-06 00:04:00,
2013-02-05 19:19:00,49.9,34.0,29.95,NNE,27,0.0,0.0,54,0.00,,,0.00,weatherlink.com 1.10,2013-02-06 00:19:00,
2013-02-05 19:34:00,48.7,33.0,29.95,NNE,27,0.0,1.0,56,0.00,,,0.00,weatherlink.com 1.10,2013-02-06 00:34:00,
2013-02-05 19:49:00,48.3,34.0,29.95,NNE,27,0.0,0.0,58,0.00,,,0.00,weatherlink.com 1.10,2013-02-06 00:49:00,
2013-02-05 20:04:00,46.5,34.0,29.96,SE,139,0.0,1.0,62,0.00,,,0.00,weatherlink.com 1.10,2013-02-06 01:04:00,
2013-02-05 20:19:00,45.9,34.0,29.96,SE,140,0.0,1.0,64,0.00,,,0.00,weatherlink.com 1.10,2013-02-06 01:19:00,
2013-02-05 20:34:00,46.3,34.0,29.96,SE,128,0.0,0.0,63,0.00,,,0.00,weatherlink.com 1.10,2013-02-06 01:34:00,
2013-02-05 20:49:00,44.9,34.0,29.96,ESE,119,0.0,0.0,67,0.00,,,0.00,weatherlink.com 1.10,2013-02-06 01:49:00,
2013-02-05 21:04:00,44.6,34.0,29.96,ESE,110,0.0,0.0,67,0.00,,,0.00,weatherlink.com 1.10,2013-02-06 02:04:00,
2013-02-05 21:19:00,45.8,35.0,29.97,East,89,0.0,0.0,65,0.00,,,0.00,weatherlink.com 1.10,2013-02-06 02:19:00,
2013-02-05 21:34:00,43.2,34.0,29.97,East,89,0.0,0.0,70,0.00,,,0.00,weatherlink.com 1.10,2013-02-06 02:34:00,
2013-02-05 21:49:00,41.9,34.0,29.98,East,84,1.0,1.0,74,0.00,,,0.00,weatherlink.com 1.10,2013-02-06 02:49:00,
2013-02-05 22:04:00,43.7,34.0,29.97,ENE,64,0.0,0.0,68,0.00,,,0.00,weatherlink.com 1.10,2013-02-06 03:04:00,
2013-02-05 22:19:00,41.6,35.0,29.97,WNW,294,0.0,6.0,77,0.00,,,0.00,weatherlink.com 1.10,2013-02-06 03:19:00,
2013-02-05 22:34:00,42.0,34.0,29.97,NW,324,0.0,1.0,73,0.00,,,0.00,weatherlink.com 1.10,2013-02-06 03:34:00,
2013-02-05 22:49:00,39.9,34.0,29.98,NW,325,0.0,0.0,78,0.00,,,0.00,weatherlink.com 1.10,2013-02-06 03:49:00,
2013-02-05 23:04:00,41.8,34.0,29.98,North,353,0.0,1.0,74,0.00,,,0.00,weatherlink.com 1.10,2013-02-06 04:04:00,
2013-02-05 23:19:00,38.9,32.0,29.98,North,352,0.0,0.0,77,0.00,,,0.00,weatherlink.com 1.10,2013-02-06 04:19:00,
2013-02-05 23:34:00,38.8,34.0,29.99,North,353,0.0,1.0,82,0.00,,,0.00,weatherlink.com 1.10,2013-02-06 04:34:00,
2013-02-05 23:49:00,38.3,32.0,29.99,North,353,0.0,0.0,79,0.00,,,0.00,weatherlink.com 1.10,2013-02-06 04:49:00,